sensor_id;sensor_type;location;lat;lon;timestamp;P1;durP1;ratioP1;P2;durP2;ratioP2
68806;SDS011;55800;54.272;18.558;2022-12-15T00:01:57;89.73;;;40.53;;
68806;SDS011;55800;54.272;18.558;2022-12-15T00:04:45;96.90;;;42.60;;
68806;SDS011;55800;54.272;18.558;2022-12-15T00:07:33;89.33;;;40.83;;
68806;SDS011;55800;54.272;18.558;2022-12-15T00:10:21;92.93;;;39.67;;
68806;SDS011;55800;54.272;18.558;2022-12-15T00:13:09;78.13;;;37.07;;
68806;SDS011;55800;54.272;18.558;2022-12-15T00:15:57;99.60;;;41.00;;
68806;SDS011;55800;54.272;18.558;2022-12-15T00:18:44;100.70;;;43.60;;
68806;SDS011;55800;54.272;18.558;2022-12-15T00:21:31;96.30;;;40.50;;
68806;SDS011;55800;54.272;18.558;2022-12-15T00:24:18;95.70;;;42.10;;
68806;SDS011;55800;54.272;18.558;2022-12-15T00:27:06;93.50;;;39.70;;
68806;SDS011;55800;54.272;18.558;2022-12-15T00:29:53;72.07;;;36.77;;
68806;SDS011;55800;54.272;18.558;2022-12-15T00:32:40;90.53;;;41.33;;
68806;SDS011;55800;54.272;18.558;2022-12-15T00:35:26;88.63;;;39.73;;
68806;SDS011;55800;54.272;18.558;2022-12-15T00:38:14;82.30;;;35.77;;
68806;SDS011;55800;54.272;18.558;2022-12-15T00:41:01;88.43;;;37.43;;
68806;SDS011;55800;54.272;18.558;2022-12-15T00:43:32;95.75;;;37.92;;
68806;SDS011;55800;54.272;18.558;2022-12-15T00:46:02;92.50;;;38.70;;
68806;SDS011;55800;54.272;18.558;2022-12-15T00:48:50;94.20;;;39.33;;
68806;SDS011;55800;54.272;18.558;2022-12-15T00:51:19;86.13;;;42.47;;
68806;SDS011;55800;54.272;18.558;2022-12-15T00:53:47;107.20;;;43.17;;
68806;SDS011;55800;54.272;18.558;2022-12-15T00:56:42;113.87;;;43.50;;
68806;SDS011;55800;54.272;18.558;2022-12-15T00:59:30;111.67;;;41.17;;
68806;SDS011;55800;54.272;18.558;2022-12-15T01:02:17;96.90;;;46.83;;
68806;SDS011;55800;54.272;18.558;2022-12-15T01:05:05;100.30;;;42.30;;
68806;SDS011;55800;54.272;18.558;2022-12-15T01:07:51;104.90;;;44.97;;
68806;SDS011;55800;54.272;18.558;2022-12-15T01:10:39;101.77;;;42.10;;
68806;SDS011;55800;54.272;18.558;2022-12-15T01:13:26;91.33;;;41.93;;
68806;SDS011;55800;54.272;18.558;2022-12-15T01:16:17;110.95;;;39.70;;
68806;SDS011;55800;54.272;18.558;2022-12-15T01:19:06;102.27;;;43.43;;
68806;SDS011;55800;54.272;18.558;2022-12-15T01:21:53;95.47;;;42.22;;
68806;SDS011;55800;54.272;18.558;2022-12-15T01:24:22;111.70;;;51.55;;
68806;SDS011;55800;54.272;18.558;2022-12-15T01:26:53;125.68;;;51.45;;
68806;SDS011;55800;54.272;18.558;2022-12-15T01:29:23;112.30;;;47.83;;
68806;SDS011;55800;54.272;18.558;2022-12-15T01:31:54;114.32;;;46.05;;
68806;SDS011;55800;54.272;18.558;2022-12-15T01:34:24;120.70;;;44.53;;
68806;SDS011;55800;54.272;18.558;2022-12-15T01:36:53;114.55;;;48.42;;
68806;SDS011;55800;54.272;18.558;2022-12-15T01:39:23;116.22;;;48.85;;
68806;SDS011;55800;54.272;18.558;2022-12-15T01:42:12;101.40;;;44.83;;
68806;SDS011;55800;54.272;18.558;2022-12-15T01:44:41;107.73;;;47.20;;
68806;SDS011;55800;54.272;18.558;2022-12-15T01:47:12;117.77;;;45.50;;
68806;SDS011;55800;54.272;18.558;2022-12-15T01:49:42;114.87;;;44.80;;
68806;SDS011;55800;54.272;18.558;2022-12-15T01:52:15;111.17;;;48.33;;
68806;SDS011;55800;54.272;18.558;2022-12-15T01:54:45;94.47;;;43.28;;
68806;SDS011;55800;54.272;18.558;2022-12-15T01:57:20;113.93;;;50.23;;
68806;SDS011;55800;54.272;18.558;2022-12-15T01:59:53;139.73;;;51.43;;
68806;SDS011;55800;54.272;18.558;2022-12-15T02:02:27;94.57;;;41.57;;
68806;SDS011;55800;54.272;18.558;2022-12-15T02:05:06;102.30;;;42.03;;
68806;SDS011;55800;54.272;18.558;2022-12-15T02:07:37;112.20;;;49.50;;
68806;SDS011;55800;54.272;18.558;2022-12-15T02:10:06;97.05;;;45.50;;
68806;SDS011;55800;54.272;18.558;2022-12-15T02:12:39;123.67;;;51.63;;
68806;SDS011;55800;54.272;18.558;2022-12-15T02:15:18;110.37;;;45.23;;
68806;SDS011;55800;54.272;18.558;2022-12-15T02:17:56;92.57;;;46.17;;
68806;SDS011;55800;54.272;18.558;2022-12-15T02:20:42;111.23;;;45.27;;
68806;SDS011;55800;54.272;18.558;2022-12-15T02:23:38;99.20;;;42.83;;
68806;SDS011;55800;54.272;18.558;2022-12-15T02:32:46;100.27;;;46.77;;
68806;SDS011;55800;54.272;18.558;2022-12-15T02:35:23;101.80;;;45.30;;
68806;SDS011;55800;54.272;18.558;2022-12-15T02:37:58;113.80;;;52.47;;
68806;SDS011;55800;54.272;18.558;2022-12-15T02:40:29;114.47;;;52.43;;
68806;SDS011;55800;54.272;18.558;2022-12-15T02:42:58;108.97;;;45.53;;
68806;SDS011;55800;54.272;18.558;2022-12-15T02:45:33;97.50;;;46.20;;
68806;SDS011;55800;54.272;18.558;2022-12-15T02:48:11;87.45;;;42.72;;
68806;SDS011;55800;54.272;18.558;2022-12-15T02:50:51;88.75;;;45.38;;
68806;SDS011;55800;54.272;18.558;2022-12-15T02:53:41;89.80;;;44.33;;
68806;SDS011;55800;54.272;18.558;2022-12-15T02:56:28;98.80;;;43.70;;
68806;SDS011;55800;54.272;18.558;2022-12-15T02:59:06;66.00;;;33.63;;
68806;SDS011;55800;54.272;18.558;2022-12-15T03:01:43;81.73;;;42.37;;
68806;SDS011;55800;54.272;18.558;2022-12-15T03:04:19;69.90;;;37.93;;
68806;SDS011;55800;54.272;18.558;2022-12-15T03:06:52;92.10;;;47.85;;
68806;SDS011;55800;54.272;18.558;2022-12-15T03:09:27;116.70;;;49.03;;
68806;SDS011;55800;54.272;18.558;2022-12-15T03:11:57;105.90;;;45.67;;
68806;SDS011;55800;54.272;18.558;2022-12-15T03:16:57;90.13;;;40.17;;
68806;SDS011;55800;54.272;18.558;2022-12-15T03:19:27;108.30;;;41.63;;
68806;SDS011;55800;54.272;18.558;2022-12-15T03:21:56;110.13;;;46.22;;
68806;SDS011;55800;54.272;18.558;2022-12-15T03:24:25;101.13;;;41.42;;
68806;SDS011;55800;54.272;18.558;2022-12-15T03:26:57;114.00;;;43.90;;
68806;SDS011;55800;54.272;18.558;2022-12-15T03:29:27;91.63;;;40.55;;
68806;SDS011;55800;54.272;18.558;2022-12-15T03:31:58;128.38;;;48.83;;
68806;SDS011;55800;54.272;18.558;2022-12-15T03:34:27;108.33;;;43.93;;
68806;SDS011;55800;54.272;18.558;2022-12-15T03:36:57;97.57;;;42.17;;
68806;SDS011;55800;54.272;18.558;2022-12-15T03:39:26;68.22;;;31.73;;
68806;SDS011;55800;54.272;18.558;2022-12-15T03:41:56;82.15;;;42.33;;
68806;SDS011;55800;54.272;18.558;2022-12-15T03:44:25;85.90;;;38.25;;
68806;SDS011;55800;54.272;18.558;2022-12-15T03:46:55;101.05;;;41.25;;
68806;SDS011;55800;54.272;18.558;2022-12-15T03:49:29;84.70;;;35.00;;
68806;SDS011;55800;54.272;18.558;2022-12-15T03:51:59;91.43;;;37.80;;
68806;SDS011;55800;54.272;18.558;2022-12-15T03:54:28;69.13;;;34.70;;
68806;SDS011;55800;54.272;18.558;2022-12-15T03:56:57;92.43;;;37.97;;
68806;SDS011;55800;54.272;18.558;2022-12-15T03:59:27;67.03;;;31.50;;
68806;SDS011;55800;54.272;18.558;2022-12-15T04:01:58;82.18;;;36.60;;
68806;SDS011;55800;54.272;18.558;2022-12-15T04:04:27;63.63;;;32.03;;
68806;SDS011;55800;54.272;18.558;2022-12-15T04:06:57;71.63;;;34.25;;
68806;SDS011;55800;54.272;18.558;2022-12-15T04:09:26;73.68;;;34.38;;
68806;SDS011;55800;54.272;18.558;2022-12-15T04:11:56;68.60;;;32.30;;
68806;SDS011;55800;54.272;18.558;2022-12-15T04:14:25;88.20;;;35.15;;
68806;SDS011;55800;54.272;18.558;2022-12-15T04:17:04;70.77;;;32.97;;
68806;SDS011;55800;54.272;18.558;2022-12-15T04:19:34;83.47;;;37.27;;
68806;SDS011;55800;54.272;18.558;2022-12-15T04:22:21;73.47;;;32.90;;
68806;SDS011;55800;54.272;18.558;2022-12-15T04:24:51;62.35;;;29.90;;
68806;SDS011;55800;54.272;18.558;2022-12-15T04:27:38;74.47;;;32.37;;
68806;SDS011;55800;54.272;18.558;2022-12-15T04:30:28;84.97;;;39.28;;
68806;SDS011;55800;54.272;18.558;2022-12-15T04:33:17;57.27;;;26.60;;
68806;SDS011;55800;54.272;18.558;2022-12-15T04:36:06;89.90;;;37.17;;
68806;SDS011;55800;54.272;18.558;2022-12-15T04:38:54;71.50;;;38.57;;
68806;SDS011;55800;54.272;18.558;2022-12-15T04:41:42;66.50;;;31.87;;
68806;SDS011;55800;54.272;18.558;2022-12-15T04:44:29;46.57;;;25.33;;
68806;SDS011;55800;54.272;18.558;2022-12-15T04:47:16;64.03;;;33.57;;
68806;SDS011;55800;54.272;18.558;2022-12-15T04:50:05;66.33;;;33.83;;
68806;SDS011;55800;54.272;18.558;2022-12-15T04:52:52;41.77;;;24.97;;
68806;SDS011;55800;54.272;18.558;2022-12-15T04:55:38;68.07;;;35.30;;
68806;SDS011;55800;54.272;18.558;2022-12-15T04:58:25;73.90;;;34.77;;
68806;SDS011;55800;54.272;18.558;2022-12-15T05:01:12;69.87;;;34.73;;
68806;SDS011;55800;54.272;18.558;2022-12-15T05:03:59;60.57;;;30.57;;
68806;SDS011;55800;54.272;18.558;2022-12-15T05:06:47;77.53;;;35.60;;
68806;SDS011;55800;54.272;18.558;2022-12-15T05:09:34;57.33;;;33.13;;
68806;SDS011;55800;54.272;18.558;2022-12-15T05:12:26;65.33;;;33.50;;
68806;SDS011;55800;54.272;18.558;2022-12-15T05:15:14;68.73;;;34.43;;
68806;SDS011;55800;54.272;18.558;2022-12-15T05:18:01;78.97;;;37.33;;
68806;SDS011;55800;54.272;18.558;2022-12-15T05:20:47;42.83;;;27.77;;
68806;SDS011;55800;54.272;18.558;2022-12-15T05:23:36;69.37;;;29.97;;
68806;SDS011;55800;54.272;18.558;2022-12-15T05:26:23;75.20;;;37.63;;
68806;SDS011;55800;54.272;18.558;2022-12-15T05:29:18;72.20;;;34.30;;
68806;SDS011;55800;54.272;18.558;2022-12-15T05:32:05;74.60;;;35.43;;
68806;SDS011;55800;54.272;18.558;2022-12-15T05:37:04;60.90;;;34.58;;
68806;SDS011;55800;54.272;18.558;2022-12-15T05:39:35;59.22;;;32.42;;
68806;SDS011;55800;54.272;18.558;2022-12-15T05:42:05;72.80;;;35.53;;
68806;SDS011;55800;54.272;18.558;2022-12-15T05:47:04;19.53;;;17.00;;
68806;SDS011;55800;54.272;18.558;2022-12-15T05:49:34;51.00;;;30.73;;
68806;SDS011;55800;54.272;18.558;2022-12-15T05:52:05;43.30;;;28.08;;
68806;SDS011;55800;54.272;18.558;2022-12-15T05:54:36;70.40;;;31.60;;
68806;SDS011;55800;54.272;18.558;2022-12-15T05:57:06;61.77;;;29.20;;
68806;SDS011;55800;54.272;18.558;2022-12-15T05:59:35;72.43;;;31.77;;
68806;SDS011;55800;54.272;18.558;2022-12-15T06:02:05;70.60;;;35.22;;
68806;SDS011;55800;54.272;18.558;2022-12-15T06:04:34;67.65;;;29.88;;
68806;SDS011;55800;54.272;18.558;2022-12-15T06:07:03;67.15;;;29.35;;
68806;SDS011;55800;54.272;18.558;2022-12-15T06:09:33;54.40;;;28.38;;
68806;SDS011;55800;54.272;18.558;2022-12-15T06:12:04;56.85;;;29.90;;
68806;SDS011;55800;54.272;18.558;2022-12-15T06:14:34;59.40;;;32.53;;
68806;SDS011;55800;54.272;18.558;2022-12-15T06:17:03;61.28;;;31.20;;
68806;SDS011;55800;54.272;18.558;2022-12-15T06:19:33;60.80;;;30.30;;
68806;SDS011;55800;54.272;18.558;2022-12-15T06:22:02;70.57;;;33.95;;
68806;SDS011;55800;54.272;18.558;2022-12-15T06:24:32;76.15;;;34.47;;
68806;SDS011;55800;54.272;18.558;2022-12-15T06:27:01;88.20;;;40.10;;
68806;SDS011;55800;54.272;18.558;2022-12-15T06:29:32;66.77;;;36.70;;
68806;SDS011;55800;54.272;18.558;2022-12-15T06:32:01;54.85;;;25.95;;
68806;SDS011;55800;54.272;18.558;2022-12-15T06:34:31;37.67;;;24.85;;
68806;SDS011;55800;54.272;18.558;2022-12-15T06:37:00;67.88;;;36.05;;
68806;SDS011;55800;54.272;18.558;2022-12-15T06:39:30;68.50;;;34.45;;
68806;SDS011;55800;54.272;18.558;2022-12-15T06:41:59;76.05;;;35.05;;
68806;SDS011;55800;54.272;18.558;2022-12-15T06:44:30;55.03;;;31.75;;
68806;SDS011;55800;54.272;18.558;2022-12-15T06:46:59;63.33;;;31.23;;
68806;SDS011;55800;54.272;18.558;2022-12-15T06:49:30;41.07;;;29.20;;
68806;SDS011;55800;54.272;18.558;2022-12-15T06:51:59;36.88;;;29.60;;
68806;SDS011;55800;54.272;18.558;2022-12-15T06:54:28;63.17;;;37.92;;
68806;SDS011;55800;54.272;18.558;2022-12-15T06:56:58;68.70;;;38.90;;
68806;SDS011;55800;54.272;18.558;2022-12-15T06:59:27;28.42;;;25.42;;
68806;SDS011;55800;54.272;18.558;2022-12-15T07:01:58;72.47;;;44.77;;
68806;SDS011;55800;54.272;18.558;2022-12-15T07:04:28;83.80;;;38.83;;
68806;SDS011;55800;54.272;18.558;2022-12-15T07:06:59;86.27;;;41.00;;
68806;SDS011;55800;54.272;18.558;2022-12-15T07:09:29;90.05;;;38.40;;
68806;SDS011;55800;54.272;18.558;2022-12-15T07:11:58;94.45;;;39.05;;
68806;SDS011;55800;54.272;18.558;2022-12-15T07:14:28;79.18;;;37.65;;
68806;SDS011;55800;54.272;18.558;2022-12-15T07:16:58;88.28;;;37.83;;
68806;SDS011;55800;54.272;18.558;2022-12-15T07:19:28;70.73;;;35.77;;
68806;SDS011;55800;54.272;18.558;2022-12-15T07:21:58;78.03;;;35.50;;
68806;SDS011;55800;54.272;18.558;2022-12-15T07:24:27;69.70;;;36.42;;
68806;SDS011;55800;54.272;18.558;2022-12-15T07:26:56;61.78;;;32.70;;
68806;SDS011;55800;54.272;18.558;2022-12-15T07:29:26;71.80;;;37.00;;
68806;SDS011;55800;54.272;18.558;2022-12-15T07:31:55;61.78;;;30.90;;
68806;SDS011;55800;54.272;18.558;2022-12-15T07:34:28;66.07;;;33.90;;
68806;SDS011;55800;54.272;18.558;2022-12-15T07:36:57;50.83;;;32.10;;
68806;SDS011;55800;54.272;18.558;2022-12-15T07:41:56;62.40;;;32.67;;
68806;SDS011;55800;54.272;18.558;2022-12-15T07:44:27;84.17;;;41.33;;
68806;SDS011;55800;54.272;18.558;2022-12-15T07:46:57;88.70;;;37.07;;
68806;SDS011;55800;54.272;18.558;2022-12-15T07:49:28;70.97;;;35.08;;
68806;SDS011;55800;54.272;18.558;2022-12-15T07:51:58;82.33;;;35.10;;
68806;SDS011;55800;54.272;18.558;2022-12-15T07:54:27;75.90;;;36.75;;
68806;SDS011;55800;54.272;18.558;2022-12-15T07:56:56;61.83;;;33.67;;
68806;SDS011;55800;54.272;18.558;2022-12-15T07:59:26;59.63;;;33.97;;
68806;SDS011;55800;54.272;18.558;2022-12-15T08:01:56;67.63;;;34.03;;
68806;SDS011;55800;54.272;18.558;2022-12-15T08:04:26;59.93;;;31.97;;
68806;SDS011;55800;54.272;18.558;2022-12-15T08:06:58;76.53;;;36.10;;
68806;SDS011;55800;54.272;18.558;2022-12-15T08:09:27;56.22;;;27.98;;
68806;SDS011;55800;54.272;18.558;2022-12-15T08:11:57;87.55;;;36.13;;
68806;SDS011;55800;54.272;18.558;2022-12-15T08:14:26;44.20;;;25.35;;
68806;SDS011;55800;54.272;18.558;2022-12-15T08:16:57;57.33;;;30.67;;
68806;SDS011;55800;54.272;18.558;2022-12-15T08:19:29;81.18;;;35.50;;
68806;SDS011;55800;54.272;18.558;2022-12-15T08:21:58;78.93;;;35.77;;
68806;SDS011;55800;54.272;18.558;2022-12-15T08:24:28;74.03;;;33.67;;
68806;SDS011;55800;54.272;18.558;2022-12-15T08:26:57;102.95;;;37.30;;
68806;SDS011;55800;54.272;18.558;2022-12-15T08:29:27;81.30;;;34.97;;
68806;SDS011;55800;54.272;18.558;2022-12-15T08:32:16;76.15;;;39.17;;
68806;SDS011;55800;54.272;18.558;2022-12-15T08:34:47;94.63;;;37.30;;
68806;SDS011;55800;54.272;18.558;2022-12-15T08:37:16;35.87;;;24.00;;
68806;SDS011;55800;54.272;18.558;2022-12-15T08:39:46;78.72;;;37.97;;
68806;SDS011;55800;54.272;18.558;2022-12-15T08:42:15;88.80;;;37.25;;
68806;SDS011;55800;54.272;18.558;2022-12-15T08:44:47;84.90;;;38.92;;
68806;SDS011;55800;54.272;18.558;2022-12-15T08:47:16;74.70;;;34.97;;
68806;SDS011;55800;54.272;18.558;2022-12-15T08:49:46;67.40;;;29.98;;
68806;SDS011;55800;54.272;18.558;2022-12-15T08:52:17;80.50;;;39.30;;
68806;SDS011;55800;54.272;18.558;2022-12-15T08:54:46;90.65;;;40.17;;
68806;SDS011;55800;54.272;18.558;2022-12-15T08:57:16;92.68;;;35.03;;
68806;SDS011;55800;54.272;18.558;2022-12-15T08:59:45;87.88;;;37.17;;
68806;SDS011;55800;54.272;18.558;2022-12-15T09:02:15;73.22;;;35.60;;
68806;SDS011;55800;54.272;18.558;2022-12-15T09:07:15;93.00;;;39.63;;
68806;SDS011;55800;54.272;18.558;2022-12-15T09:09:45;98.93;;;37.83;;
68806;SDS011;55800;54.272;18.558;2022-12-15T09:12:14;86.63;;;35.00;;
68806;SDS011;55800;54.272;18.558;2022-12-15T09:14:43;88.00;;;41.15;;
68806;SDS011;55800;54.272;18.558;2022-12-15T09:17:13;91.00;;;41.92;;
68806;SDS011;55800;54.272;18.558;2022-12-15T09:19:42;102.75;;;43.63;;
68806;SDS011;55800;54.272;18.558;2022-12-15T09:22:12;97.00;;;42.97;;
68806;SDS011;55800;54.272;18.558;2022-12-15T09:24:43;90.00;;;43.90;;
68806;SDS011;55800;54.272;18.558;2022-12-15T09:27:13;98.97;;;43.27;;
68806;SDS011;55800;54.272;18.558;2022-12-15T09:29:42;103.40;;;46.38;;
68806;SDS011;55800;54.272;18.558;2022-12-15T09:32:11;108.72;;;43.88;;
68806;SDS011;55800;54.272;18.558;2022-12-15T09:34:40;94.00;;;38.63;;
68806;SDS011;55800;54.272;18.558;2022-12-15T09:37:10;92.13;;;42.30;;
68806;SDS011;55800;54.272;18.558;2022-12-15T09:39:39;104.22;;;43.15;;
68806;SDS011;55800;54.272;18.558;2022-12-15T09:42:18;76.88;;;36.38;;
68806;SDS011;55800;54.272;18.558;2022-12-15T09:44:54;93.50;;;42.10;;
68806;SDS011;55800;54.272;18.558;2022-12-15T09:47:33;104.63;;;42.58;;
68806;SDS011;55800;54.272;18.558;2022-12-15T09:50:11;89.40;;;38.45;;
68806;SDS011;55800;54.272;18.558;2022-12-15T09:52:45;100.20;;;38.87;;
68806;SDS011;55800;54.272;18.558;2022-12-15T09:55:19;90.27;;;41.17;;
68806;SDS011;55800;54.272;18.558;2022-12-15T09:57:52;90.50;;;38.57;;
68806;SDS011;55800;54.272;18.558;2022-12-15T10:00:23;84.17;;;38.17;;
68806;SDS011;55800;54.272;18.558;2022-12-15T10:03:10;85.00;;;38.33;;
68806;SDS011;55800;54.272;18.558;2022-12-15T10:06:03;99.57;;;39.50;;
68806;SDS011;55800;54.272;18.558;2022-12-15T10:08:48;100.97;;;41.07;;
68806;SDS011;55800;54.272;18.558;2022-12-15T10:11:23;80.10;;;39.73;;
68806;SDS011;55800;54.272;18.558;2022-12-15T10:14:12;97.37;;;43.10;;
68806;SDS011;55800;54.272;18.558;2022-12-15T10:16:50;97.43;;;41.23;;
68806;SDS011;55800;54.272;18.558;2022-12-15T10:19:28;82.13;;;40.53;;
68806;SDS011;55800;54.272;18.558;2022-12-15T10:22:06;108.80;;;45.83;;
68806;SDS011;55800;54.272;18.558;2022-12-15T10:24:40;105.03;;;48.30;;
68806;SDS011;55800;54.272;18.558;2022-12-15T10:27:35;113.73;;;48.80;;
68806;SDS011;55800;54.272;18.558;2022-12-15T10:30:19;105.00;;;48.60;;
68806;SDS011;55800;54.272;18.558;2022-12-15T10:32:50;122.80;;;52.33;;
68806;SDS011;55800;54.272;18.558;2022-12-15T10:35:27;111.27;;;47.87;;
68806;SDS011;55800;54.272;18.558;2022-12-15T10:37:59;107.80;;;51.37;;
68806;SDS011;55800;54.272;18.558;2022-12-15T10:40:43;106.90;;;46.27;;
68806;SDS011;55800;54.272;18.558;2022-12-15T10:43:23;89.87;;;43.80;;
68806;SDS011;55800;54.272;18.558;2022-12-15T10:46:00;84.20;;;39.20;;
68806;SDS011;55800;54.272;18.558;2022-12-15T10:48:34;88.33;;;40.77;;
68806;SDS011;55800;54.272;18.558;2022-12-15T10:51:13;93.05;;;42.47;;
68806;SDS011;55800;54.272;18.558;2022-12-15T10:53:48;105.10;;;42.77;;
68806;SDS011;55800;54.272;18.558;2022-12-15T10:56:21;82.37;;;37.90;;
68806;SDS011;55800;54.272;18.558;2022-12-15T10:59:00;103.97;;;40.10;;
68806;SDS011;55800;54.272;18.558;2022-12-15T11:01:33;79.73;;;33.33;;
68806;SDS011;55800;54.272;18.558;2022-12-15T11:04:03;76.93;;;34.33;;
68806;SDS011;55800;54.272;18.558;2022-12-15T11:06:54;66.00;;;30.00;;
68806;SDS011;55800;54.272;18.558;2022-12-15T11:09:27;53.90;;;24.17;;
68806;SDS011;55800;54.272;18.558;2022-12-15T11:12:00;54.80;;;26.30;;
68806;SDS011;55800;54.272;18.558;2022-12-15T11:15:27;45.73;;;24.50;;
68806;SDS011;55800;54.272;18.558;2022-12-15T11:18:13;48.17;;;22.77;;
68806;SDS011;55800;54.272;18.558;2022-12-15T11:21:03;47.70;;;22.13;;
68806;SDS011;55800;54.272;18.558;2022-12-15T11:23:41;53.70;;;24.13;;
68806;SDS011;55800;54.272;18.558;2022-12-15T11:26:22;55.20;;;24.63;;
68806;SDS011;55800;54.272;18.558;2022-12-15T11:29:05;55.53;;;24.87;;
68806;SDS011;55800;54.272;18.558;2022-12-15T11:31:45;52.07;;;26.90;;
68806;SDS011;55800;54.272;18.558;2022-12-15T11:40:11;48.33;;;23.93;;
68806;SDS011;55800;54.272;18.558;2022-12-15T11:43:18;54.03;;;28.70;;
68806;SDS011;55800;54.272;18.558;2022-12-15T11:46:20;50.83;;;25.90;;
68806;SDS011;55800;54.272;18.558;2022-12-15T11:48:55;56.13;;;27.17;;
68806;SDS011;55800;54.272;18.558;2022-12-15T11:51:38;61.87;;;29.37;;
68806;SDS011;55800;54.272;18.558;2022-12-15T11:54:17;42.05;;;22.85;;
68806;SDS011;55800;54.272;18.558;2022-12-15T11:56:55;53.22;;;25.88;;
68806;SDS011;55800;54.272;18.558;2022-12-15T11:59:37;56.83;;;25.33;;
68806;SDS011;55800;54.272;18.558;2022-12-15T12:02:31;54.93;;;25.57;;
68806;SDS011;55800;54.272;18.558;2022-12-15T12:05:18;54.72;;;25.05;;
68806;SDS011;55800;54.272;18.558;2022-12-15T12:08:13;48.23;;;23.73;;
68806;SDS011;55800;54.272;18.558;2022-12-15T12:10:56;53.77;;;27.70;;
68806;SDS011;55800;54.272;18.558;2022-12-15T12:13:34;52.83;;;25.73;;
68806;SDS011;55800;54.272;18.558;2022-12-15T12:16:20;54.73;;;26.63;;
68806;SDS011;55800;54.272;18.558;2022-12-15T12:19:00;53.97;;;26.70;;
68806;SDS011;55800;54.272;18.558;2022-12-15T12:21:33;90.10;;;38.50;;
68806;SDS011;55800;54.272;18.558;2022-12-15T12:24:10;86.60;;;37.97;;
68806;SDS011;55800;54.272;18.558;2022-12-15T12:26:44;72.97;;;35.13;;
68806;SDS011;55800;54.272;18.558;2022-12-15T12:29:18;75.30;;;35.60;;
68806;SDS011;55800;54.272;18.558;2022-12-15T12:31:54;65.10;;;31.57;;
68806;SDS011;55800;54.272;18.558;2022-12-15T12:34:52;64.23;;;29.77;;
68806;SDS011;55800;54.272;18.558;2022-12-15T12:37:50;55.42;;;27.02;;
68806;SDS011;55800;54.272;18.558;2022-12-15T12:40:35;58.07;;;28.90;;
68806;SDS011;55800;54.272;18.558;2022-12-15T12:43:21;55.90;;;29.60;;
68806;SDS011;55800;54.272;18.558;2022-12-15T12:46:01;46.53;;;24.93;;
68806;SDS011;55800;54.272;18.558;2022-12-15T12:48:37;52.90;;;27.50;;
68806;SDS011;55800;54.272;18.558;2022-12-15T12:51:22;57.40;;;29.30;;
68806;SDS011;55800;54.272;18.558;2022-12-15T12:53:55;62.30;;;29.57;;
68806;SDS011;55800;54.272;18.558;2022-12-15T12:56:34;66.53;;;33.07;;
68806;SDS011;55800;54.272;18.558;2022-12-15T13:05:25;62.53;;;32.50;;
68806;SDS011;55800;54.272;18.558;2022-12-15T13:11:43;79.60;;;38.03;;
68806;SDS011;55800;54.272;18.558;2022-12-15T13:14:35;57.67;;;31.63;;
68806;SDS011;55800;54.272;18.558;2022-12-15T13:17:24;56.90;;;29.23;;
68806;SDS011;55800;54.272;18.558;2022-12-15T13:20:06;62.30;;;29.73;;
68806;SDS011;55800;54.272;18.558;2022-12-15T13:28:49;52.50;;;27.03;;
68806;SDS011;55800;54.272;18.558;2022-12-15T13:31:24;63.50;;;34.03;;
68806;SDS011;55800;54.272;18.558;2022-12-15T13:36:52;65.87;;;32.03;;
68806;SDS011;55800;54.272;18.558;2022-12-15T13:42:29;69.85;;;33.38;;
68806;SDS011;55800;54.272;18.558;2022-12-15T13:45:29;70.77;;;32.07;;
68806;SDS011;55800;54.272;18.558;2022-12-15T13:51:09;80.60;;;38.15;;
68806;SDS011;55800;54.272;18.558;2022-12-15T13:53:51;91.23;;;45.37;;
68806;SDS011;55800;54.272;18.558;2022-12-15T13:59:30;82.87;;;45.07;;
68806;SDS011;55800;54.272;18.558;2022-12-15T14:02:21;84.83;;;42.03;;
68806;SDS011;55800;54.272;18.558;2022-12-15T14:05:08;85.10;;;41.37;;
68806;SDS011;55800;54.272;18.558;2022-12-15T14:07:42;104.50;;;40.58;;
68806;SDS011;55800;54.272;18.558;2022-12-15T14:10:22;87.38;;;43.17;;
68806;SDS011;55800;54.272;18.558;2022-12-15T14:12:56;84.83;;;42.27;;
68806;SDS011;55800;54.272;18.558;2022-12-15T14:15:43;103.53;;;46.60;;
68806;SDS011;55800;54.272;18.558;2022-12-15T14:18:35;101.00;;;42.30;;
68806;SDS011;55800;54.272;18.558;2022-12-15T14:21:17;94.33;;;45.13;;
68806;SDS011;55800;54.272;18.558;2022-12-15T14:23:48;98.47;;;44.80;;
68806;SDS011;55800;54.272;18.558;2022-12-15T14:26:39;99.88;;;48.13;;
68806;SDS011;55800;54.272;18.558;2022-12-15T14:29:09;104.63;;;53.50;;
68806;SDS011;55800;54.272;18.558;2022-12-15T14:31:39;102.47;;;50.73;;
68806;SDS011;55800;54.272;18.558;2022-12-15T14:34:10;106.97;;;54.13;;
68806;SDS011;55800;54.272;18.558;2022-12-15T14:36:45;102.47;;;45.70;;
68806;SDS011;55800;54.272;18.558;2022-12-15T14:39:18;101.00;;;48.97;;
68806;SDS011;55800;54.272;18.558;2022-12-15T14:41:51;105.77;;;45.27;;
68806;SDS011;55800;54.272;18.558;2022-12-15T14:44:26;102.63;;;44.60;;
68806;SDS011;55800;54.272;18.558;2022-12-15T14:47:05;107.03;;;46.60;;
68806;SDS011;55800;54.272;18.558;2022-12-15T14:49:43;99.03;;;43.77;;
68806;SDS011;55800;54.272;18.558;2022-12-15T14:52:22;104.20;;;46.60;;
68806;SDS011;55800;54.272;18.558;2022-12-15T14:54:57;106.07;;;47.50;;
68806;SDS011;55800;54.272;18.558;2022-12-15T14:57:37;111.70;;;50.67;;
68806;SDS011;55800;54.272;18.558;2022-12-15T15:00:22;96.50;;;45.60;;
68806;SDS011;55800;54.272;18.558;2022-12-15T15:03:15;93.53;;;43.90;;
68806;SDS011;55800;54.272;18.558;2022-12-15T15:05:54;97.75;;;45.60;;
68806;SDS011;55800;54.272;18.558;2022-12-15T15:08:28;110.23;;;47.23;;
68806;SDS011;55800;54.272;18.558;2022-12-15T15:11:00;94.07;;;45.40;;
68806;SDS011;55800;54.272;18.558;2022-12-15T15:13:45;103.47;;;48.87;;
68806;SDS011;55800;54.272;18.558;2022-12-15T15:16:14;114.80;;;54.63;;
68806;SDS011;55800;54.272;18.558;2022-12-15T15:18:47;102.97;;;50.60;;
68806;SDS011;55800;54.272;18.558;2022-12-15T15:21:20;102.07;;;49.97;;
68806;SDS011;55800;54.272;18.558;2022-12-15T15:23:58;124.33;;;54.67;;
68806;SDS011;55800;54.272;18.558;2022-12-15T15:26:29;125.00;;;53.27;;
68806;SDS011;55800;54.272;18.558;2022-12-15T15:28:59;99.17;;;48.37;;
68806;SDS011;55800;54.272;18.558;2022-12-15T15:31:33;110.07;;;50.67;;
68806;SDS011;55800;54.272;18.558;2022-12-15T15:34:08;100.83;;;48.93;;
68806;SDS011;55800;54.272;18.558;2022-12-15T15:36:38;101.25;;;49.95;;
68806;SDS011;55800;54.272;18.558;2022-12-15T15:39:11;123.53;;;51.08;;
68806;SDS011;55800;54.272;18.558;2022-12-15T15:41:42;100.33;;;44.90;;
68806;SDS011;55800;54.272;18.558;2022-12-15T15:44:12;101.20;;;47.85;;
68806;SDS011;55800;54.272;18.558;2022-12-15T15:46:44;108.23;;;49.93;;
68806;SDS011;55800;54.272;18.558;2022-12-15T15:49:16;109.03;;;48.13;;
68806;SDS011;55800;54.272;18.558;2022-12-15T15:51:47;105.43;;;44.87;;
68806;SDS011;55800;54.272;18.558;2022-12-15T15:54:20;104.60;;;46.35;;